Time;durP1;ratioP1;P1;durP2;ratioP2;P2;SDS_P1;SDS_P2;PMS_P1;PMS_P2;Temp;Humidity;BMP_temperature;BMP_pressure;BME280_temperature;BME280_humidity;BME280_pressure;Samples;Min_cycle;Max_cycle;Signal;HPM_P1;HPM_P2
2023/07/17 00:00:47;;;;;;;5.95;1.75;;;;;;;;;;4929941;28;100086;-78
2023/07/17 00:03:13;;;;;;;12.32;2.47;;;;;;;;;;4926695;28;98233;-79
2023/07/17 00:05:40;;;;;;;11.32;3.28;;;;;;;;;;4923004;28;99386;-79
2023/07/17 00:08:07;;;;;;;7.97;1.75;;;;;;;;;;4930219;28;98030;-79
2023/07/17 00:10:33;;;;;;;6.50;2.10;;;;;;;;;;4929620;28;99618;-79
2023/07/17 00:13:00;;;;;;;11.63;2.45;;;;;;;;;;4929920;28;100541;-78
2023/07/17 00:15:26;;;;;;;8.20;2.67;;;;;;;;;;4929884;28;98302;-78
2023/07/17 00:17:53;;;;;;;7.45;2.47;;;;;;;;;;4928752;28;99545;-78
2023/07/17 00:20:20;;;;;;;3.95;2.25;;;;;;;;;;4929639;28;100217;-79
2023/07/17 00:22:47;;;;;;;4.75;1.92;;;;;;;;;;4930195;28;98675;-79
2023/07/17 00:25:14;;;;;;;9.30;1.75;;;;;;;;;;4928865;28;98469;-78
2023/07/17 00:27:40;;;;;;;4.82;1.50;;;;;;;;;;4933062;28;98930;-79
2023/07/17 00:30:07;;;;;;;4.05;1.55;;;;;;;;;;4930108;28;98388;-79
2023/07/17 00:32:34;;;;;;;6.95;2.45;;;;;;;;;;4927263;28;102208;-78
2023/07/17 00:35:00;;;;;;;4.93;2.35;;;;;;;;;;4930440;28;98168;-78
2023/07/17 00:37:29;;;;;;;6.65;2.03;;;;;;;;;;4928772;28;100977;-79
2023/07/17 00:39:55;;;;;;;7.95;2.60;;;;;;;;;;4929741;28;98799;-78
2023/07/17 00:42:22;;;;;;;3.28;1.58;;;;;;;;;;4927769;28;98316;-79
2023/07/17 00:44:48;;;;;;;12.02;2.30;;;;;;;;;;4930187;28;98126;-79
2023/07/17 00:47:15;;;;;;;5.30;1.45;;;;;;;;;;4927869;28;99393;-78
2023/07/17 00:49:42;;;;;;;7.32;1.88;;;;;;;;;;4948146;28;98292;-78
2023/07/17 00:52:09;;;;;;;9.60;2.40;;;;;;;;;;4929863;28;101532;-80
2023/07/17 00:54:36;;;;;;;9.98;2.08;;;;;;;;;;4947269;28;98253;-78
2023/07/17 00:57:06;;;;;;;5.75;2.25;;;;;;;;;;4933881;28;98203;-78
2023/07/17 00:59:32;;;;;;;10.98;2.30;;;;;;;;;;4932871;28;98621;-78
2023/07/17 01:01:59;;;;;;;5.80;2.20;;;;;;;;;;4931080;28;98321;-77
2023/07/17 01:04:26;;;;;;;3.33;1.65;;;;;;;;;;4932834;28;98212;-79
2023/07/17 01:06:52;;;;;;;4.93;1.63;;;;;;;;;;4930909;28;99980;-79
2023/07/17 01:09:21;;;;;;;11.63;1.88;;;;;;;;;;4935888;28;98262;-79
2023/07/17 01:11:49;;;;;;;7.10;1.60;;;;;;;;;;4932731;28;100026;-79
2023/07/17 01:14:17;;;;;;;3.65;1.52;;;;;;;;;;4932278;28;98086;-78
2023/07/17 01:16:45;;;;;;;3.97;1.77;;;;;;;;;;4932821;28;100776;-78
2023/07/17 01:19:12;;;;;;;5.72;1.88;;;;;;;;;;4931561;28;98866;-78
2023/07/17 01:21:57;;;;;;;7.78;1.98;;;;;;;;;;4930616;28;98234;-78
2023/07/17 01:24:24;;;;;;;5.72;2.05;;;;;;;;;;4912093;28;100201;-78
2023/07/17 01:26:51;;;;;;;6.80;2.45;;;;;;;;;;4911936;28;102717;-78
2023/07/17 01:29:17;;;;;;;8.57;2.20;;;;;;;;;;4912966;28;98521;-79
2023/07/17 01:31:44;;;;;;;4.07;1.55;;;;;;;;;;4932184;28;98304;-78
2023/07/17 01:34:12;;;;;;;3.90;1.90;;;;;;;;;;4932545;28;98229;-79
2023/07/17 01:36:39;;;;;;;3.63;1.83;;;;;;;;;;4933792;28;98241;-78
2023/07/17 01:39:05;;;;;;;4.53;1.40;;;;;;;;;;4933959;28;98843;-79
2023/07/17 01:41:32;;;;;;;3.45;1.63;;;;;;;;;;4933150;28;98304;-79
2023/07/17 01:43:58;;;;;;;6.80;2.60;;;;;;;;;;4931688;28;98793;-80
2023/07/17 01:46:25;;;;;;;6.65;1.88;;;;;;;;;;4927169;28;100761;-78
2023/07/17 01:48:51;;;;;;;3.05;1.63;;;;;;;;;;4941235;28;99875;-77
2023/07/17 01:51:18;;;;;;;8.25;1.98;;;;;;;;;;4932384;28;98415;-79
2023/07/17 01:53:45;;;;;;;2.78;1.55;;;;;;;;;;4933490;28;100216;-79
2023/07/17 01:56:11;;;;;;;3.33;1.63;;;;;;;;;;4927950;28;100819;-78
2023/07/17 01:58:38;;;;;;;5.53;1.50;;;;;;;;;;4930697;28;101967;-79
2023/07/17 02:01:04;;;;;;;4.82;1.52;;;;;;;;;;4930931;28;98300;-79
2023/07/17 02:03:32;;;;;;;6.60;1.83;;;;;;;;;;4929587;28;98197;-76
2023/07/17 02:05:59;;;;;;;6.95;2.00;;;;;;;;;;4933441;28;99533;-79
2023/07/17 02:08:26;;;;;;;3.88;1.80;;;;;;;;;;4932174;28;98738;-78
2023/07/17 02:10:54;;;;;;;6.95;1.67;;;;;;;;;;4946115;28;99375;-80
2023/07/17 02:13:20;;;;;;;3.42;1.35;;;;;;;;;;4930738;28;98764;-78
2023/07/17 02:15:47;;;;;;;7.45;2.03;;;;;;;;;;4934124;28;97941;-77
2023/07/17 02:18:13;;;;;;;3.40;1.38;;;;;;;;;;4930920;28;99056;-79
2023/07/17 02:20:40;;;;;;;4.75;1.70;;;;;;;;;;4931127;28;98175;-78
2023/07/17 02:23:06;;;;;;;1.98;1.50;;;;;;;;;;4938324;28;98399;-77
2023/07/17 02:25:33;;;;;;;4.15;1.40;;;;;;;;;;4931061;28;98737;-79
2023/07/17 02:28:00;;;;;;;5.20;1.77;;;;;;;;;;4932019;28;98206;-78
2023/07/17 02:30:26;;;;;;;7.13;2.20;;;;;;;;;;4931797;28;99293;-78
2023/07/17 02:32:52;;;;;;;4.70;1.63;;;;;;;;;;4931053;28;99073;-79
2023/07/17 02:35:19;;;;;;;7.53;1.77;;;;;;;;;;4931410;28;98157;-79
2023/07/17 02:37:46;;;;;;;3.53;1.70;;;;;;;;;;4933650;28;99967;-79
2023/07/17 02:40:13;;;;;;;3.95;1.77;;;;;;;;;;4930463;28;98258;-78
2023/07/17 02:42:40;;;;;;;4.38;1.80;;;;;;;;;;4931509;28;99343;-78
2023/07/17 02:45:07;;;;;;;10.93;2.55;;;;;;;;;;4944791;28;100961;-78
2023/07/17 02:47:33;;;;;;;2.97;1.52;;;;;;;;;;4945975;28;98352;-78
2023/07/17 02:49:59;;;;;;;5.63;1.70;;;;;;;;;;4931565;28;98321;-77
2023/07/17 02:52:28;;;;;;;4.82;1.92;;;;;;;;;;4930835;28;98699;-78
2023/07/17 02:54:55;;;;;;;7.43;2.03;;;;;;;;;;4932213;28;98227;-78
2023/07/17 02:57:21;;;;;;;2.38;1.40;;;;;;;;;;4929900;28;100062;-77
2023/07/17 02:59:48;;;;;;;8.07;1.85;;;;;;;;;;4934122;28;98864;-78
2023/07/17 03:02:14;;;;;;;4.50;1.77;;;;;;;;;;4931632;28;98464;-78
2023/07/17 03:04:41;;;;;;;11.07;2.22;;;;;;;;;;4929865;28;99988;-79
2023/07/17 03:07:08;;;;;;;7.30;2.30;;;;;;;;;;4928302;28;98293;-78
2023/07/17 03:09:34;;;;;;;2.88;1.83;;;;;;;;;;4930036;28;99428;-79
2023/07/17 03:12:01;;;;;;;4.25;2.17;;;;;;;;;;4931634;28;98688;-80
2023/07/17 03:14:28;;;;;;;6.03;2.65;;;;;;;;;;4928598;28;98398;-79
2023/07/17 03:16:55;;;;;;;4.63;1.70;;;;;;;;;;4929848;28;101453;-78
2023/07/17 03:19:22;;;;;;;4.53;1.90;;;;;;;;;;4932360;28;101379;-79
2023/07/17 03:21:49;;;;;;;9.13;2.65;;;;;;;;;;4928856;28;101158;-79
2023/07/17 03:24:15;;;;;;;4.72;1.98;;;;;;;;;;4930344;28;98883;-79
2023/07/17 03:26:42;;;;;;;4.50;2.08;;;;;;;;;;4929632;28;98271;-80
2023/07/17 03:29:08;;;;;;;8.40;2.15;;;;;;;;;;4929520;28;100320;-79
2023/07/17 03:31:35;;;;;;;5.88;2.00;;;;;;;;;;4925873;28;101799;-78
2023/07/17 03:34:02;;;;;;;6.07;2.28;;;;;;;;;;4910636;28;98259;-79
2023/07/17 03:36:28;;;;;;;6.75;2.22;;;;;;;;;;4924487;28;100891;-79
2023/07/17 03:38:57;;;;;;;7.40;2.05;;;;;;;;;;4911475;28;99894;-78
2023/07/17 03:41:23;;;;;;;3.05;1.98;;;;;;;;;;4912586;28;98465;-78
2023/07/17 03:43:50;;;;;;;6.10;2.97;;;;;;;;;;4911229;28;98874;-78
2023/07/17 03:46:17;;;;;;;8.80;2.35;;;;;;;;;;4920668;28;98847;-80
2023/07/17 03:48:43;;;;;;;5.75;2.53;;;;;;;;;;4929496;28;98286;-79
2023/07/17 03:51:11;;;;;;;4.00;2.58;;;;;;;;;;4929453;28;101529;-79
2023/07/17 03:53:38;;;;;;;4.22;2.03;;;;;;;;;;4929469;28;98245;-78
2023/07/17 03:56:05;;;;;;;5.07;2.13;;;;;;;;;;4930152;28;98366;-79
2023/07/17 03:58:31;;;;;;;8.82;2.38;;;;;;;;;;4928877;28;100404;-78
2023/07/17 04:00:58;;;;;;;3.10;2.22;;;;;;;;;;4929185;28;98127;-79
2023/07/17 04:03:33;;;;;;;6.75;2.25;;;;;;;;;;4931781;28;101100;-79
2023/07/17 04:05:59;;;;;;;8.25;2.55;;;;;;;;;;4919259;28;99210;-78
2023/07/17 04:08:27;;;;;;;4.97;2.05;;;;;;;;;;4909138;28;100803;-79
2023/07/17 04:10:53;;;;;;;5.43;2.13;;;;;;;;;;4910314;28;98750;-79
2023/07/17 04:13:20;;;;;;;6.30;2.22;;;;;;;;;;4911003;28;98565;-79
2023/07/17 04:15:48;;;;;;;4.50;2.22;;;;;;;;;;4911521;28;98628;-79
2023/07/17 04:18:16;;;;;;;7.57;2.28;;;;;;;;;;4925912;28;99971;-79
2023/07/17 04:20:43;;;;;;;5.22;2.70;;;;;;;;;;4921640;28;98226;-79
2023/07/17 04:23:10;;;;;;;6.68;2.35;;;;;;;;;;4931794;28;98006;-78
2023/07/17 04:25:41;;;;;;;2.77;2.00;;;;;;;;;;4933550;28;101429;-78
2023/07/17 04:28:11;;;;;;;5.82;2.30;;;;;;;;;;4950504;28;101336;-77
2023/07/17 04:30:38;;;;;;;7.63;2.20;;;;;;;;;;4933359;28;99892;-78
2023/07/17 04:33:09;;;;;;;5.18;2.67;;;;;;;;;;4951167;28;98234;-79
2023/07/17 04:35:39;;;;;;;8.68;2.95;;;;;;;;;;4933351;28;100450;-78
2023/07/17 04:38:06;;;;;;;10.50;2.45;;;;;;;;;;4948019;28;100893;-78
2023/07/17 04:40:33;;;;;;;11.60;2.95;;;;;;;;;;4931959;28;98272;-79
2023/07/17 04:43:01;;;;;;;9.10;3.10;;;;;;;;;;4931484;28;99493;-78
2023/07/17 04:45:29;;;;;;;5.78;2.70;;;;;;;;;;4931016;28;100999;-78
2023/07/17 04:47:57;;;;;;;8.48;3.00;;;;;;;;;;4934559;28;98330;-78
2023/07/17 04:50:25;;;;;;;9.95;2.88;;;;;;;;;;4933223;28;98793;-77
2023/07/17 04:52:52;;;;;;;7.00;2.70;;;;;;;;;;4931487;28;98235;-79
2023/07/17 04:55:21;;;;;;;8.23;3.33;;;;;;;;;;4933786;28;98462;-78
2023/07/17 04:57:48;;;;;;;8.95;3.25;;;;;;;;;;4934618;28;101700;-79
2023/07/17 05:00:17;;;;;;;6.07;2.60;;;;;;;;;;4933995;28;98412;-79
2023/07/17 05:02:44;;;;;;;8.45;2.67;;;;;;;;;;4934936;28;99623;-78
2023/07/17 05:05:12;;;;;;;7.60;2.72;;;;;;;;;;4951111;28;101588;-76
2023/07/17 05:07:40;;;;;;;6.75;3.28;;;;;;;;;;4950012;28;98356;-79
2023/07/17 05:10:08;;;;;;;6.25;3.58;;;;;;;;;;4937008;28;98441;-79
2023/07/17 05:12:35;;;;;;;13.00;3.55;;;;;;;;;;4931275;28;98271;-80
2023/07/17 05:15:01;;;;;;;7.60;3.08;;;;;;;;;;4929986;28;100837;-76
2023/07/17 05:17:29;;;;;;;7.35;3.17;;;;;;;;;;4927015;28;101200;-78
2023/07/17 05:19:55;;;;;;;7.25;3.15;;;;;;;;;;4927330;28;98648;-78
2023/07/17 05:22:23;;;;;;;11.63;3.33;;;;;;;;;;4929434;28;99752;-78
2023/07/17 05:24:50;;;;;;;13.00;3.55;;;;;;;;;;4931042;28;100174;-77
2023/07/17 05:27:17;;;;;;;8.75;2.97;;;;;;;;;;4929944;28;98357;-79
2023/07/17 05:29:43;;;;;;;11.65;3.70;;;;;;;;;;4947488;28;98514;-79
2023/07/17 05:32:10;;;;;;;8.93;3.60;;;;;;;;;;4927854;28;98303;-79
2023/07/17 05:34:37;;;;;;;8.88;3.30;;;;;;;;;;4912308;28;100000;-79
2023/07/17 05:37:05;;;;;;;5.68;3.05;;;;;;;;;;4927086;28;99092;-78
2023/07/17 05:39:32;;;;;;;7.78;3.38;;;;;;;;;;4911928;28;98314;-78
2023/07/17 05:41:58;;;;;;;5.78;3.60;;;;;;;;;;4946798;28;99977;-75
2023/07/17 05:44:25;;;;;;;9.25;4.13;;;;;;;;;;4928581;28;101158;-73
2023/07/17 05:46:51;;;;;;;12.70;3.78;;;;;;;;;;4922091;28;98566;-73
2023/07/17 05:49:18;;;;;;;9.70;4.60;;;;;;;;;;4922109;28;99131;-74
2023/07/17 05:51:46;;;;;;;10.95;3.70;;;;;;;;;;4931312;28;98990;-74
2023/07/17 05:54:13;;;;;;;7.20;3.90;;;;;;;;;;4930636;28;98584;-74
2023/07/17 05:56:40;;;;;;;9.02;3.65;;;;;;;;;;4925742;28;99994;-74
2023/07/17 05:59:07;;;;;;;7.65;3.72;;;;;;;;;;4943690;28;98434;-75
2023/07/17 06:01:33;;;;;;;10.18;4.53;;;;;;;;;;4917105;28;100305;-78
2023/07/17 06:04:06;;;;;;;7.60;5.28;;;;;;;;;;4949029;28;99988;-77
2023/07/17 06:06:33;;;;;;;11.57;3.53;;;;;;;;;;4931969;28;101126;-77
2023/07/17 06:09:00;;;;;;;12.65;4.75;;;;;;;;;;4922583;28;98554;-77
2023/07/17 06:11:27;;;;;;;8.10;4.60;;;;;;;;;;4930906;28;98996;-76
2023/07/17 06:13:53;;;;;;;8.57;4.50;;;;;;;;;;4935032;28;98253;-77
2023/07/17 06:16:19;;;;;;;12.60;4.88;;;;;;;;;;4930378;28;99318;-74
2023/07/17 06:18:46;;;;;;;5.32;4.00;;;;;;;;;;4927917;28;98690;-74
2023/07/17 06:21:12;;;;;;;13.63;4.80;;;;;;;;;;4950063;28;98459;-74
2023/07/17 06:23:39;;;;;;;6.63;4.45;;;;;;;;;;4949635;28;98867;-74
2023/07/17 06:26:06;;;;;;;14.10;5.55;;;;;;;;;;4927538;28;98568;-74
2023/07/17 06:28:33;;;;;;;7.15;4.45;;;;;;;;;;4931644;28;98494;-73
2023/07/17 06:30:59;;;;;;;11.40;4.30;;;;;;;;;;4923085;28;99813;-74
2023/07/17 06:33:26;;;;;;;7.68;5.32;;;;;;;;;;4930258;28;98316;-77
2023/07/17 06:35:52;;;;;;;9.00;5.28;;;;;;;;;;4918796;28;98691;-78
2023/07/17 06:38:18;;;;;;;8.65;4.40;;;;;;;;;;4930496;28;98462;-78
2023/07/17 06:40:45;;;;;;;11.48;5.82;;;;;;;;;;4924589;28;99965;-78
2023/07/17 06:43:11;;;;;;;10.80;4.97;;;;;;;;;;4912127;28;99022;-79
2023/07/17 06:45:38;;;;;;;8.63;5.22;;;;;;;;;;4924393;28;98963;-78
2023/07/17 06:48:04;;;;;;;14.15;5.57;;;;;;;;;;4912182;28;99608;-78
2023/07/17 06:50:31;;;;;;;11.70;5.30;;;;;;;;;;4916821;28;98934;-79
2023/07/17 06:52:57;;;;;;;8.02;5.15;;;;;;;;;;4930144;28;98246;-78
2023/07/17 06:55:24;;;;;;;12.05;5.50;;;;;;;;;;4930883;28;98418;-79
2023/07/17 06:57:50;;;;;;;11.73;5.45;;;;;;;;;;4934451;28;99926;-78
2023/07/17 07:00:16;;;;;;;7.90;4.90;;;;;;;;;;4921766;28;99057;-79
2023/07/17 07:02:43;;;;;;;11.65;5.03;;;;;;;;;;4910475;28;99149;-78
2023/07/17 07:05:09;;;;;;;10.80;5.30;;;;;;;;;;4911955;28;98369;-78
2023/07/17 07:07:36;;;;;;;11.30;6.53;;;;;;;;;;4911027;28;100228;-78
2023/07/17 07:10:02;;;;;;;10.38;5.63;;;;;;;;;;4911514;28;99443;-78
2023/07/17 07:12:29;;;;;;;8.70;4.60;;;;;;;;;;4910591;28;98336;-77
2023/07/17 07:14:55;;;;;;;8.90;5.25;;;;;;;;;;4911119;28;98579;-77
2023/07/17 07:17:22;;;;;;;8.18;5.38;;;;;;;;;;4911405;28;100044;-78
2023/07/17 07:19:50;;;;;;;7.47;4.38;;;;;;;;;;4921330;28;99244;-77
2023/07/17 07:22:17;;;;;;;12.30;4.60;;;;;;;;;;4930740;28;99289;-78
2023/07/17 07:24:46;;;;;;;13.05;4.95;;;;;;;;;;4919845;28;98223;-78
2023/07/17 07:27:12;;;;;;;15.52;4.15;;;;;;;;;;4910460;28;98756;-77
2023/07/17 07:29:39;;;;;;;9.65;4.63;;;;;;;;;;4917682;28;98942;-78
2023/07/17 07:32:05;;;;;;;5.15;4.25;;;;;;;;;;4930595;28;98204;-77
2023/07/17 07:34:35;;;;;;;13.52;4.10;;;;;;;;;;4929891;28;99927;-78
2023/07/17 07:37:02;;;;;;;6.60;3.80;;;;;;;;;;4919832;28;98968;-78
2023/07/17 07:39:29;;;;;;;8.57;3.90;;;;;;;;;;4933007;28;98160;-78
2023/07/17 07:41:55;;;;;;;10.27;3.88;;;;;;;;;;4929407;28;100243;-77
2023/07/17 07:44:22;;;;;;;9.73;4.00;;;;;;;;;;4930312;28;98236;-77
2023/07/17 07:46:48;;;;;;;9.95;4.43;;;;;;;;;;4930796;28;98554;-77
2023/07/17 07:49:15;;;;;;;6.88;3.58;;;;;;;;;;4929438;28;98914;-78
2023/07/17 07:51:42;;;;;;;5.93;3.63;;;;;;;;;;4930620;28;98273;-77
2023/07/17 07:54:08;;;;;;;8.60;3.47;;;;;;;;;;4930669;28;99540;-78
2023/07/17 07:56:47;;;;;;;7.68;3.63;;;;;;;;;;4929755;28;100000;-78
2023/07/17 07:59:14;;;;;;;6.45;3.72;;;;;;;;;;4930540;28;98329;-77
2023/07/17 08:01:40;;;;;;;11.00;3.65;;;;;;;;;;4931872;28;99761;-77
2023/07/17 08:04:07;;;;;;;6.63;3.38;;;;;;;;;;4913869;28;98217;-77
2023/07/17 08:06:34;;;;;;;9.65;3.50;;;;;;;;;;4914865;28;98513;-77
2023/07/17 08:09:00;;;;;;;9.05;3.40;;;;;;;;;;4915618;28;99895;-77
2023/07/17 08:11:27;;;;;;;9.90;3.60;;;;;;;;;;4914334;28;98224;-78
2023/07/17 08:13:53;;;;;;;8.70;3.83;;;;;;;;;;4914390;28;100095;-78
2023/07/17 08:16:20;;;;;;;6.57;3.03;;;;;;;;;;4913353;28;99866;-78
2023/07/17 08:18:47;;;;;;;6.78;3.35;;;;;;;;;;4914365;28;98242;-78
2023/07/17 08:21:14;;;;;;;8.40;3.35;;;;;;;;;;4914373;28;98847;-77
2023/07/17 08:23:41;;;;;;;6.55;3.20;;;;;;;;;;4916981;28;99011;-78
2023/07/17 08:26:08;;;;;;;9.00;3.72;;;;;;;;;;4914230;28;99444;-78
2023/07/17 08:28:35;;;;;;;8.05;3.22;;;;;;;;;;4912836;28;100287;-78
2023/07/17 08:31:03;;;;;;;9.45;3.95;;;;;;;;;;4931825;28;98799;-78
2023/07/17 08:33:29;;;;;;;6.30;3.03;;;;;;;;;;4932541;28;98989;-78
2023/07/17 08:35:56;;;;;;;6.65;3.30;;;;;;;;;;4933185;28;100274;-78
2023/07/17 08:38:22;;;;;;;8.95;3.25;;;;;;;;;;4932233;28;98479;-79
2023/07/17 08:40:50;;;;;;;9.30;3.55;;;;;;;;;;4933744;28;99803;-80
2023/07/17 08:43:17;;;;;;;5.05;2.67;;;;;;;;;;4932376;28;100468;-79
2023/07/17 08:45:45;;;;;;;11.45;3.42;;;;;;;;;;4935985;28;98255;-79
2023/07/17 08:48:12;;;;;;;8.15;3.20;;;;;;;;;;4932218;28;98944;-78
2023/07/17 08:50:40;;;;;;;8.85;2.85;;;;;;;;;;4932934;28;98147;-77
2023/07/17 08:53:07;;;;;;;4.78;2.83;;;;;;;;;;4931563;28;99496;-77
2023/07/17 08:55:35;;;;;;;4.45;2.90;;;;;;;;;;4932871;28;100030;-77
2023/07/17 08:58:05;;;;;;;5.53;2.80;;;;;;;;;;4932339;28;98320;-77
2023/07/17 09:00:32;;;;;;;5.93;3.13;;;;;;;;;;4918802;28;100154;-78
2023/07/17 09:02:58;;;;;;;3.35;2.25;;;;;;;;;;4929996;28;100034;-77
2023/07/17 09:05:25;;;;;;;2.83;1.90;;;;;;;;;;4931446;28;98265;-79
2023/07/17 09:07:51;;;;;;;6.32;3.00;;;;;;;;;;4936172;28;98801;-79
2023/07/17 09:10:22;;;;;;;10.52;3.67;;;;;;;;;;4915101;28;98222;-80
2023/07/17 09:12:49;;;;;;;4.22;2.65;;;;;;;;;;4925869;28;98902;-80
2023/07/17 09:15:16;;;;;;;7.38;2.80;;;;;;;;;;4932399;28;99237;-79
2023/07/17 09:17:43;;;;;;;7.20;2.60;;;;;;;;;;4931902;28;98235;-78
2023/07/17 09:20:11;;;;;;;4.22;2.53;;;;;;;;;;4931825;28;99667;-79
2023/07/17 09:22:38;;;;;;;2.92;2.03;;;;;;;;;;4933024;28;99127;-80
2023/07/17 09:25:05;;;;;;;3.65;2.28;;;;;;;;;;4932624;28;98240;-80
2023/07/17 09:27:41;;;;;;;7.45;2.60;;;;;;;;;;4931747;28;99665;-80
2023/07/17 09:30:08;;;;;;;8.10;2.17;;;;;;;;;;4935349;28;98065;-79
2023/07/17 09:32:34;;;;;;;4.82;2.40;;;;;;;;;;4915218;28;98441;-79
2023/07/17 09:35:05;;;;;;;4.05;2.35;;;;;;;;;;4932022;28;99950;-79
2023/07/17 09:37:31;;;;;;;4.32;2.53;;;;;;;;;;4932641;28;98918;-79
2023/07/17 09:39:58;;;;;;;6.63;2.40;;;;;;;;;;4932380;28;99658;-80
2023/07/17 09:42:25;;;;;;;3.72;2.30;;;;;;;;;;4930267;28;99876;-80
2023/07/17 09:44:52;;;;;;;4.68;2.25;;;;;;;;;;4932129;28;98374;-80
2023/07/17 09:47:19;;;;;;;3.90;2.17;;;;;;;;;;4931177;28;99455;-80
2023/07/17 09:49:47;;;;;;;3.22;2.05;;;;;;;;;;4925486;28;100139;-80
2023/07/17 09:52:14;;;;;;;4.60;1.83;;;;;;;;;;4912587;28;99335;-79
2023/07/17 09:54:42;;;;;;;4.18;1.70;;;;;;;;;;4912093;28;99177;-79
2023/07/17 09:57:09;;;;;;;5.15;2.00;;;;;;;;;;4918980;28;98443;-79
2023/07/17 09:59:40;;;;;;;5.15;2.22;;;;;;;;;;4931651;28;99400;-79
2023/07/17 10:02:11;;;;;;;6.25;2.25;;;;;;;;;;4930585;28;100246;-79
2023/07/17 10:04:42;;;;;;;5.20;2.30;;;;;;;;;;4932331;28;98253;-80
2023/07/17 10:07:08;;;;;;;3.50;2.38;;;;;;;;;;4928367;28;99491;-79
2023/07/17 10:09:36;;;;;;;3.78;1.88;;;;;;;;;;4910372;28;98882;-79
2023/07/17 10:12:06;;;;;;;3.53;2.13;;;;;;;;;;4915881;28;98182;-79
2023/07/17 10:14:32;;;;;;;4.43;2.53;;;;;;;;;;4912478;28;99895;-78
2023/07/17 10:16:59;;;;;;;6.90;2.13;;;;;;;;;;4917900;28;98265;-78
2023/07/17 10:19:26;;;;;;;3.28;1.88;;;;;;;;;;4932612;28;99421;-79
2023/07/17 10:21:56;;;;;;;3.80;2.25;;;;;;;;;;4932900;28;99125;-79
2023/07/17 10:24:26;;;;;;;6.00;2.90;;;;;;;;;;4930260;28;98508;-77
2023/07/17 10:26:52;;;;;;;3.47;2.40;;;;;;;;;;4923894;28;99605;-78
2023/07/17 10:29:31;;;;;;;3.55;2.30;;;;;;;;;;4913621;28;99898;-78
2023/07/17 10:31:58;;;;;;;3.55;2.47;;;;;;;;;;4930708;28;98189;-79
2023/07/17 10:34:43;;;;;;;8.60;2.55;;;;;;;;;;4934559;28;98736;-79
2023/07/17 10:37:17;;;;;;;5.95;2.70;;;;;;;;;;4930942;28;98395;-79
2023/07/17 10:39:43;;;;;;;5.70;2.47;;;;;;;;;;4931803;28;99320;-78
2023/07/17 10:42:10;;;;;;;5.20;2.58;;;;;;;;;;4931445;28;99182;-77
2023/07/17 10:44:36;;;;;;;7.22;2.35;;;;;;;;;;4930815;28;98320;-77
2023/07/17 10:47:03;;;;;;;3.17;2.40;;;;;;;;;;4931450;28;99453;-77
2023/07/17 10:49:29;;;;;;;6.20;2.20;;;;;;;;;;4931206;28;100309;-78
2023/07/17 10:51:56;;;;;;;6.75;2.60;;;;;;;;;;4930594;28;98589;-78
2023/07/17 10:54:24;;;;;;;4.78;1.90;;;;;;;;;;4931648;28;99733;-78
2023/07/17 10:56:50;;;;;;;5.40;1.95;;;;;;;;;;4932763;28;99243;-78
2023/07/17 10:59:17;;;;;;;4.88;2.40;;;;;;;;;;4913196;28;99751;-78
2023/07/17 11:01:44;;;;;;;5.47;2.30;;;;;;;;;;4930825;28;98945;-78
2023/07/17 11:04:11;;;;;;;11.80;2.83;;;;;;;;;;4930806;28;98700;-78
2023/07/17 11:06:38;;;;;;;15.95;2.63;;;;;;;;;;4929521;28;99414;-78
2023/07/17 11:09:04;;;;;;;4.25;2.63;;;;;;;;;;4923944;28;100055;-79
2023/07/17 11:11:32;;;;;;;7.15;2.88;;;;;;;;;;4911085;28;98243;-78
2023/07/17 11:14:00;;;;;;;7.03;2.65;;;;;;;;;;4912397;28;98509;-78
2023/07/17 11:16:27;;;;;;;8.85;2.42;;;;;;;;;;4910861;28;99061;-78
2023/07/17 11:18:54;;;;;;;7.32;2.22;;;;;;;;;;4923467;28;98281;-79
2023/07/17 11:21:22;;;;;;;3.42;1.50;;;;;;;;;;4929834;28;99877;-78
2023/07/17 11:23:52;;;;;;;2.70;1.73;;;;;;;;;;4930964;28;98227;-78
2023/07/17 11:26:20;;;;;;;4.47;1.30;;;;;;;;;;4929774;28;99724;-79
2023/07/17 11:28:48;;;;;;;3.45;1.52;;;;;;;;;;4930465;28;98945;-78
2023/07/17 11:31:22;;;;;;;1.88;1.48;;;;;;;;;;4930656;28;98366;-78
2023/07/17 11:33:50;;;;;;;7.82;1.65;;;;;;;;;;4930169;28;99811;-79
2023/07/17 11:36:16;;;;;;;2.20;1.80;;;;;;;;;;4930503;28;99189;-81
2023/07/17 11:38:43;;;;;;;3.50;2.10;;;;;;;;;;4933811;28;98189;-78
2023/07/17 11:41:09;;;;;;;5.78;2.60;;;;;;;;;;4929281;28;100373;-80
2023/07/17 11:43:36;;;;;;;3.53;2.20;;;;;;;;;;4930341;28;98286;-78
2023/07/17 11:46:05;;;;;;;3.13;2.10;;;;;;;;;;4929765;28;99876;-79
2023/07/17 11:48:32;;;;;;;2.40;1.98;;;;;;;;;;4929127;28;98919;-79
2023/07/17 11:51:03;;;;;;;3.53;2.20;;;;;;;;;;4930227;28;98282;-80
2023/07/17 11:53:30;;;;;;;3.22;1.83;;;;;;;;;;4930088;28;98626;-79
2023/07/17 11:55:58;;;;;;;7.05;2.58;;;;;;;;;;4929335;28;99959;-79
2023/07/17 11:58:25;;;;;;;2.20;2.10;;;;;;;;;;4930121;28;98193;-78
2023/07/17 12:00:53;;;;;;;5.30;2.10;;;;;;;;;;4932625;28;98433;-79
2023/07/17 12:03:19;;;;;;;7.50;2.20;;;;;;;;;;4930382;28;98231;-78
2023/07/17 12:05:46;;;;;;;6.15;2.10;;;;;;;;;;4930331;28;99463;-78
2023/07/17 12:08:13;;;;;;;4.75;2.10;;;;;;;;;;4926060;28;100432;-78
2023/07/17 12:10:39;;;;;;;3.63;2.30;;;;;;;;;;4912976;28;98212;-78
2023/07/17 12:13:06;;;;;;;3.72;2.28;;;;;;;;;;4911355;28;98674;-80
2023/07/17 12:15:33;;;;;;;4.25;2.60;;;;;;;;;;4910124;28;99091;-78
2023/07/17 12:18:00;;;;;;;7.07;2.85;;;;;;;;;;4911260;28;98164;-79
2023/07/17 12:20:27;;;;;;;5.97;2.72;;;;;;;;;;4910575;28;99523;-80
2023/07/17 12:22:54;;;;;;;3.72;2.75;;;;;;;;;;4913035;28;99045;-80
2023/07/17 12:25:21;;;;;;;6.07;2.47;;;;;;;;;;4912873;28;98595;-79
2023/07/17 12:27:48;;;;;;;5.35;2.90;;;;;;;;;;4930681;28;98966;-79
2023/07/17 12:30:15;;;;;;;4.95;2.88;;;;;;;;;;4928530;28;98239;-78
2023/07/17 12:32:42;;;;;;;4.72;2.35;;;;;;;;;;4930162;28;99510;-78
2023/07/17 12:35:09;;;;;;;4.25;2.15;;;;;;;;;;4928413;28;99901;-77
2023/07/17 12:37:35;;;;;;;5.95;2.60;;;;;;;;;;4929173;28;98271;-78
2023/07/17 12:40:02;;;;;;;3.35;2.35;;;;;;;;;;4929938;28;99761;-80
2023/07/17 12:42:29;;;;;;;5.03;2.85;;;;;;;;;;4929048;28;100205;-78
2023/07/17 12:44:56;;;;;;;4.60;2.28;;;;;;;;;;4932165;28;98213;-78
2023/07/17 12:47:22;;;;;;;15.73;3.42;;;;;;;;;;4930177;28;99964;-78
2023/07/17 12:49:49;;;;;;;6.03;2.50;;;;;;;;;;4928409;28;101723;-78
2023/07/17 12:52:16;;;;;;;6.72;2.80;;;;;;;;;;4920524;28;98573;-78
2023/07/17 12:54:43;;;;;;;5.97;2.70;;;;;;;;;;4932120;28;99376;-78
2023/07/17 12:57:09;;;;;;;6.10;3.70;;;;;;;;;;4928751;28;98308;-77
2023/07/17 12:59:41;;;;;;;4.30;2.88;;;;;;;;;;4932378;28;99365;-78
2023/07/17 13:02:08;;;;;;;3.97;2.88;;;;;;;;;;4932095;28;99988;-77
2023/07/17 13:04:35;;;;;;;5.18;2.35;;;;;;;;;;4931695;28;98277;-78
2023/07/17 13:07:01;;;;;;;4.68;2.97;;;;;;;;;;4935234;28;99315;-78
2023/07/17 13:09:28;;;;;;;5.15;2.90;;;;;;;;;;4930052;28;98220;-79
2023/07/17 13:11:54;;;;;;;2.45;2.25;;;;;;;;;;4912977;28;98504;-79
2023/07/17 13:14:21;;;;;;;10.80;2.80;;;;;;;;;;4913493;28;100227;-79
2023/07/17 13:16:47;;;;;;;8.60;3.75;;;;;;;;;;4913830;28;98277;-79
2023/07/17 13:19:14;;;;;;;4.95;3.13;;;;;;;;;;4912560;28;99519;-78
2023/07/17 13:21:40;;;;;;;10.05;4.07;;;;;;;;;;4913067;28;99917;-79
2023/07/17 13:24:07;;;;;;;6.22;3.00;;;;;;;;;;4912858;28;98015;-79
2023/07/17 13:26:33;;;;;;;6.78;3.15;;;;;;;;;;4929823;28;99590;-79
2023/07/17 13:29:00;;;;;;;10.15;3.22;;;;;;;;;;4934618;28;99361;-81
2023/07/17 13:31:27;;;;;;;9.80;3.97;;;;;;;;;;4931564;28;99413;-81
2023/07/17 13:33:53;;;;;;;5.15;3.90;;;;;;;;;;4931398;28;99889;-79
2023/07/17 13:36:20;;;;;;;7.70;4.07;;;;;;;;;;4932254;28;98359;-79
2023/07/17 13:38:46;;;;;;;8.02;3.90;;;;;;;;;;4932423;28;98666;-80
2023/07/17 13:41:18;;;;;;;7.32;4.05;;;;;;;;;;4931243;28;99978;-80
2023/07/17 13:43:45;;;;;;;5.38;3.78;;;;;;;;;;4932591;28;98589;-79
2023/07/17 13:46:11;;;;;;;5.80;3.78;;;;;;;;;;4931972;28;99363;-80
2023/07/17 13:48:38;;;;;;;5.18;4.10;;;;;;;;;;4933832;28;99524;-79
2023/07/17 13:51:04;;;;;;;4.88;3.15;;;;;;;;;;4932171;28;99962;-74
2023/07/17 13:53:30;;;;;;;7.05;4.28;;;;;;;;;;4927793;28;100180;-77
2023/07/17 13:55:57;;;;;;;9.63;4.72;;;;;;;;;;4929790;28;98253;-78
2023/07/17 13:58:23;;;;;;;7.93;3.50;;;;;;;;;;4923435;28;99533;-76
2023/07/17 14:00:50;;;;;;;8.43;3.83;;;;;;;;;;4927703;28;100015;-77
2023/07/17 14:03:16;;;;;;;11.30;4.40;;;;;;;;;;4931229;28;99171;-78
2023/07/17 14:05:44;;;;;;;8.07;4.22;;;;;;;;;;4932139;28;99945;-77
2023/07/17 14:08:10;;;;;;;7.20;3.92;;;;;;;;;;4923237;28;100366;-77
2023/07/17 14:10:37;;;;;;;4.30;3.53;;;;;;;;;;4927714;28;98205;-77
2023/07/17 14:13:03;;;;;;;10.95;4.80;;;;;;;;;;4929451;28;99606;-79
2023/07/17 14:15:29;;;;;;;7.10;3.95;;;;;;;;;;4921439;28;98409;-78
2023/07/17 14:17:56;;;;;;;6.18;3.08;;;;;;;;;;4921142;28;99397;-77
2023/07/17 14:20:22;;;;;;;6.18;3.63;;;;;;;;;;4929106;28;98834;-78
2023/07/17 14:22:49;;;;;;;6.85;3.78;;;;;;;;;;4928582;28;100206;-79
2023/07/17 14:25:15;;;;;;;4.82;3.42;;;;;;;;;;4930312;28;99570;-78
2023/07/17 14:27:42;;;;;;;5.88;2.85;;;;;;;;;;4930911;28;99464;-78
2023/07/17 14:30:10;;;;;;;5.07;2.40;;;;;;;;;;4932911;28;98249;-80
2023/07/17 14:32:36;;;;;;;4.55;2.50;;;;;;;;;;4920339;28;98534;-80
2023/07/17 14:35:03;;;;;;;3.40;2.80;;;;;;;;;;4937289;28;98179;-80
2023/07/17 14:37:29;;;;;;;4.13;2.95;;;;;;;;;;4926286;28;101028;-80